createdAt,value
2023-03-10T00:01:21.979Z,99286.63
2023-03-10T00:03:48.790Z,99301.75
2023-03-10T00:06:17.721Z,99304.81
2023-03-10T00:08:44.381Z,99306.63
2023-03-10T00:11:11.060Z,99292.19
2023-03-10T00:13:38.322Z,99297.41
2023-03-10T00:16:06.136Z,99295.84
2023-03-10T00:18:32.770Z,99288.81
2023-03-10T00:20:59.386Z,99279.75
2023-03-10T00:23:26.069Z,99266.66
2023-03-10T00:25:57.377Z,99256.75
2023-03-10T00:28:25.057Z,99261.09
2023-03-10T00:31:03.255Z,99226.88
2023-03-10T00:33:32.151Z,99238.72
2023-03-10T00:36:04.444Z,99244.41
2023-03-10T00:38:31.199Z,99241.63
2023-03-10T00:41:01.814Z,99237.38
2023-03-10T00:43:28.571Z,99233.41
2023-03-10T00:45:55.586Z,99225.16
2023-03-10T00:48:22.922Z,99222.50
2023-03-10T00:50:49.713Z,99191.31
2023-03-10T00:53:16.771Z,99217.81
2023-03-10T00:55:43.358Z,99208.00
2023-03-10T00:58:10.465Z,99206.78
2023-03-10T01:00:37.025Z,99130.22
2023-03-10T01:03:03.566Z,99189.13
2023-03-10T01:05:30.210Z,99176.91
2023-03-10T01:07:56.768Z,99179.09
2023-03-10T01:10:23.369Z,99174.97
2023-03-10T01:12:49.893Z,99136.53
2023-03-10T01:15:16.763Z,99145.22
2023-03-10T01:17:43.287Z,99120.81
2023-03-10T01:20:14.023Z,99154.44
2023-03-10T01:22:41.295Z,99150.16
2023-03-10T01:25:09.540Z,99136.78
2023-03-10T01:27:37.300Z,99148.88
2023-03-10T01:30:04.082Z,99137.47
2023-03-10T01:32:30.624Z,99149.94
2023-03-10T01:34:57.170Z,99128.88
2023-03-10T01:37:24.722Z,99132.16
2023-03-10T01:39:51.274Z,99014.47
2023-03-10T01:42:17.769Z,99115.38
2023-03-10T01:45:07.175Z,99113.53
2023-03-10T01:47:33.676Z,99110.41
2023-03-10T01:52:46.271Z,99095.88
2023-03-10T01:55:16.775Z,99111.13
2023-03-10T01:57:50.602Z,99112.06
2023-03-10T02:00:18.064Z,99108.44
2023-03-10T02:02:56.899Z,99052.97
2023-03-10T02:05:24.531Z,99098.31
2023-03-10T02:07:52.032Z,99006.59
2023-03-10T02:10:21.497Z,99081.34
2023-03-10T02:12:47.986Z,99070.47
2023-03-10T02:15:14.486Z,99055.38
2023-03-10T02:17:41.305Z,99054.41
2023-03-10T02:20:52.871Z,99044.34
2023-03-10T02:23:28.641Z,99034.91
2023-03-10T02:26:05.317Z,99026.97
2023-03-10T02:28:31.895Z,99025.97
2023-03-10T02:30:58.642Z,99012.84
2023-03-10T02:33:31.606Z,99018.03
2023-03-10T02:36:12.351Z,99008.09
2023-03-10T02:38:38.941Z,99008.94
2023-03-10T02:41:19.351Z,98931.06
2023-03-10T02:43:47.679Z,98971.13
2023-03-10T02:46:14.957Z,98998.75
2023-03-10T02:48:41.905Z,98993.78
2023-03-10T02:51:13.443Z,98959.13
2023-03-10T02:53:39.995Z,98975.22
2023-03-10T02:56:06.771Z,98982.63
2023-03-10T02:58:33.616Z,98982.44
2023-03-10T03:01:00.375Z,98986.94
2023-03-10T03:03:27.256Z,98902.47
2023-03-10T03:05:53.928Z,98968.81
2023-03-10T03:08:21.182Z,98937.66
2023-03-10T03:10:47.856Z,98958.38
2023-03-10T03:13:14.426Z,98913.91
2023-03-10T03:15:41.377Z,98955.16
2023-03-10T03:18:08.531Z,98943.63
2023-03-10T03:20:37.630Z,98915.50
2023-03-10T03:23:04.726Z,98883.59
2023-03-10T03:25:35.831Z,98927.09
2023-03-10T03:28:03.572Z,98947.66
2023-03-10T03:30:30.513Z,98782.66
2023-03-10T03:32:57.298Z,98906.41
2023-03-10T03:35:28.131Z,98917.47
2023-03-10T03:37:55.212Z,98888.69
2023-03-10T03:40:22.938Z,98911.59
2023-03-10T03:42:51.497Z,98912.28
2023-03-10T03:45:21.665Z,98924.00
2023-03-10T03:47:48.494Z,98913.34
2023-03-10T03:50:18.132Z,98833.53
2023-03-10T03:52:45.423Z,98918.44
2023-03-10T03:55:14.001Z,98914.81
2023-03-10T03:57:40.878Z,98860.47
2023-03-10T04:00:09.808Z,98902.25
2023-03-10T04:02:36.347Z,98866.19
2023-03-10T04:05:03.372Z,98824.84
2023-03-10T04:07:29.804Z,98897.16
2023-03-10T04:09:56.308Z,98889.50
2023-03-10T04:12:22.807Z,98886.84
2023-03-10T04:14:49.375Z,98880.75
2023-03-10T04:17:16.856Z,98878.81
2023-03-10T04:19:45.879Z,98836.63
2023-03-10T04:22:14.015Z,98762.28
2023-03-10T04:24:40.624Z,98863.09
2023-03-10T04:27:09.530Z,98802.22
2023-03-10T04:29:39.105Z,98856.69
2023-03-10T04:32:06.636Z,98790.38
2023-03-10T04:34:33.864Z,98857.53
2023-03-10T04:37:00.336Z,98845.38
2023-03-10T04:39:26.820Z,98844.63
2023-03-10T04:41:53.641Z,98836.59
2023-03-10T04:44:30.473Z,98839.94
2023-03-10T04:46:57.626Z,98835.56
2023-03-10T04:49:24.166Z,98807.47
2023-03-10T04:51:50.645Z,98829.03
2023-03-10T04:54:17.122Z,98689.34
2023-03-10T04:56:43.724Z,98469.69
2023-03-10T04:59:10.541Z,97917.84
2023-03-10T05:01:37.267Z,97860.19
2023-03-10T05:04:05.634Z,97846.38
2023-03-10T05:06:32.421Z,97569.00
2023-03-10T05:09:00.978Z,97226.88
2023-03-10T05:11:27.448Z,97350.53
2023-03-10T05:13:54.011Z,97491.75
2023-03-10T05:16:22.009Z,97302.69
2023-03-10T05:18:48.630Z,97442.50
2023-03-10T05:21:15.933Z,97532.56
2023-03-10T05:23:42.569Z,97521.38
2023-03-10T05:26:11.001Z,97564.25
2023-03-10T05:28:37.939Z,97576.28
2023-03-10T05:31:16.400Z,97618.03
2023-03-10T05:33:43.691Z,97633.31
2023-03-10T05:36:12.981Z,97667.22
2023-03-10T05:38:39.630Z,97638.09
2023-03-10T05:41:08.509Z,97650.09
2023-03-10T05:43:35.325Z,97662.59
2023-03-10T05:46:01.828Z,97651.47
2023-03-10T05:48:28.629Z,97666.06
2023-03-10T05:51:05.314Z,97650.66
2023-03-10T05:53:33.271Z,97637.25
2023-03-10T05:56:00.050Z,97647.19
2023-03-10T05:58:27.514Z,97649.59
2023-03-10T06:00:54.137Z,97654.84
2023-03-10T06:03:23.153Z,97659.53
2023-03-10T06:05:50.404Z,97679.88
2023-03-10T06:08:17.497Z,97663.50
2023-03-10T06:10:44.020Z,97605.09
2023-03-10T06:13:10.645Z,97597.25
2023-03-10T06:15:37.144Z,97657.03
2023-03-10T06:18:03.807Z,97631.16
2023-03-10T06:20:30.381Z,97627.63
2023-03-10T06:22:56.877Z,97671.69
2023-03-10T06:25:23.448Z,97611.47
2023-03-10T06:27:49.915Z,97692.69
2023-03-10T06:30:16.783Z,97712.75
2023-03-10T06:32:43.578Z,97714.84
2023-03-10T06:35:14.383Z,97698.78
2023-03-10T06:37:41.866Z,97689.88
2023-03-10T06:40:12.882Z,97697.09
2023-03-10T06:42:43.814Z,97706.75
2023-03-10T06:45:15.464Z,97691.88
2023-03-10T06:47:43.504Z,97711.28
2023-03-10T06:50:11.818Z,97665.63
2023-03-10T06:52:38.512Z,97656.53
2023-03-10T06:55:05.500Z,97673.88
2023-03-10T06:57:32.117Z,97725.03
2023-03-10T06:59:58.841Z,97703.00
2023-03-10T07:02:25.385Z,97722.00
2023-03-10T07:04:51.996Z,97181.91
2023-03-10T07:07:18.525Z,97328.69
2023-03-10T07:09:46.309Z,97560.78
2023-03-10T07:12:12.966Z,97641.47
2023-03-10T07:14:39.488Z,97656.28
2023-03-10T07:17:06.085Z,97648.88
2023-03-10T07:19:33.750Z,97728.88
2023-03-10T07:22:00.655Z,97704.69
2023-03-10T07:24:27.234Z,97819.00
2023-03-10T07:26:53.973Z,97753.13
2023-03-10T07:29:20.408Z,97770.09
2023-03-10T07:31:47.012Z,97839.91
2023-03-10T07:34:13.879Z,97859.34
2023-03-10T07:36:40.406Z,97845.84
2023-03-10T07:39:07.128Z,97863.53
2023-03-10T07:41:33.727Z,97913.91
2023-03-10T07:44:00.572Z,97881.84
2023-03-10T07:46:27.288Z,97924.50
2023-03-10T07:48:55.960Z,97956.50
2023-03-10T07:51:22.648Z,97957.13
2023-03-10T07:53:49.218Z,97996.47
2023-03-10T07:56:15.891Z,98014.19
2023-03-10T07:58:42.880Z,97962.00
2023-03-10T08:01:15.336Z,97979.25
2023-03-10T08:03:41.970Z,98024.16
2023-03-10T08:06:08.968Z,98089.44
2023-03-10T08:08:35.707Z,97990.34
2023-03-10T08:11:05.012Z,98067.84
2023-03-10T08:13:32.604Z,98061.34
2023-03-10T08:16:01.402Z,98073.63
2023-03-10T08:18:29.622Z,98082.84
2023-03-10T08:20:57.338Z,98040.91
2023-03-10T08:23:24.694Z,98112.53
2023-03-10T08:25:51.625Z,98085.78
2023-03-10T08:28:18.098Z,98070.06
2023-03-10T08:31:02.592Z,98092.78
2023-03-10T08:33:30.828Z,98104.97
2023-03-10T08:36:30.869Z,98107.50
2023-03-10T08:39:00.630Z,98034.75
2023-03-10T08:41:35.583Z,98128.91
2023-03-10T08:44:03.582Z,98119.84
2023-03-10T08:46:32.221Z,98073.44
2023-03-10T08:48:59.455Z,98134.03
2023-03-10T08:51:28.172Z,98158.28
2023-03-10T08:53:56.636Z,98132.38
2023-03-10T08:56:23.872Z,98210.97
2023-03-10T08:58:50.899Z,98231.75
2023-03-10T09:01:17.891Z,98272.31
2023-03-10T09:03:45.571Z,98239.13
2023-03-10T09:06:13.144Z,98228.53
2023-03-10T09:08:41.342Z,98208.53
2023-03-10T09:11:09.740Z,98210.34
2023-03-10T09:13:36.272Z,98269.59
2023-03-10T09:16:03.207Z,98252.56
2023-03-10T09:18:29.942Z,98274.16
2023-03-10T09:20:56.575Z,98290.16
2023-03-10T09:23:23.119Z,98272.34
2023-03-10T09:25:49.756Z,98334.66
2023-03-10T09:28:18.579Z,98303.53
2023-03-10T09:30:45.872Z,98313.47
2023-03-10T09:33:18.439Z,98331.03
2023-03-10T09:35:52.808Z,98336.78
2023-03-10T09:38:29.752Z,98323.88
2023-03-10T09:41:20.963Z,98306.81
2023-03-10T09:44:02.369Z,98323.09
2023-03-10T09:46:37.198Z,98308.81
2023-03-10T09:49:03.634Z,98304.03
2023-03-10T09:51:30.090Z,98271.72
2023-03-10T09:54:30.960Z,98267.75
2023-03-10T09:57:00.932Z,98241.91
2023-03-10T09:59:37.257Z,98283.78
2023-03-10T10:02:16.096Z,98246.28
2023-03-10T10:04:43.451Z,98264.41
2023-03-10T10:07:21.098Z,98300.13
2023-03-10T10:09:57.219Z,98313.13
2023-03-10T10:12:26.318Z,98328.22
2023-03-10T10:14:58.827Z,98328.06
2023-03-10T10:17:37.307Z,98209.13
2023-03-10T10:20:23.400Z,98275.91
2023-03-10T10:22:52.717Z,98188.56
2023-03-10T10:25:24.429Z,98237.50
2023-03-10T10:27:56.167Z,98252.78
2023-03-10T10:30:28.309Z,98237.41
2023-03-10T10:32:57.655Z,98208.25
2023-03-10T10:35:27.825Z,98177.56
2023-03-10T10:38:03.956Z,98217.53
2023-03-10T10:40:34.642Z,98226.34
2023-03-10T10:43:05.785Z,98217.31
2023-03-10T10:45:37.647Z,98232.13
2023-03-10T10:48:04.896Z,98263.97
2023-03-10T10:50:36.562Z,98261.03
2023-03-10T10:53:17.111Z,98296.88
2023-03-10T10:55:45.622Z,98299.59
2023-03-10T10:58:31.963Z,98283.19
2023-03-10T11:01:05.872Z,98253.75
2023-03-10T11:03:38.006Z,98252.13
2023-03-10T11:06:27.278Z,98300.03
2023-03-10T11:09:06.927Z,98268.94
2023-03-10T11:11:38.405Z,98179.94
2023-03-10T11:14:17.675Z,98216.78
2023-03-10T11:17:14.327Z,98189.59
2023-03-10T11:20:25.117Z,98188.47
2023-03-10T11:23:09.286Z,98149.63
2023-03-10T11:25:42.675Z,98173.97
2023-03-10T11:28:36.563Z,98183.22
2023-03-10T11:31:24.615Z,98196.53
2023-03-10T11:34:05.083Z,98242.09
2023-03-10T11:36:55.869Z,98172.97
2023-03-10T11:39:29.083Z,98162.38
2023-03-10T11:42:03.281Z,98135.88
2023-03-10T11:44:40.871Z,98213.97
2023-03-10T11:47:43.187Z,98142.78
2023-03-10T11:50:27.104Z,98180.91
2023-03-10T11:53:01.061Z,98130.69
2023-03-10T11:55:27.903Z,98146.13
2023-03-10T11:58:00.016Z,98075.59
2023-03-10T12:00:42.854Z,98052.47
2023-03-10T12:03:14.840Z,98124.81
2023-03-10T12:05:50.877Z,98118.19
2023-03-10T12:08:20.202Z,98157.19
2023-03-10T12:10:47.944Z,98170.34
2023-03-10T12:13:33.401Z,98200.28
2023-03-10T12:16:02.443Z,98125.94
2023-03-10T12:18:29.635Z,98161.81
2023-03-10T12:21:19.968Z,98090.53
2023-03-10T12:23:49.491Z,98104.59
2023-03-10T12:26:36.080Z,98119.72
2023-03-10T12:29:21.101Z,98193.38
2023-03-10T12:31:52.773Z,98159.41
2023-03-10T12:34:23.979Z,98203.72
2023-03-10T12:37:15.071Z,98201.97
2023-03-10T12:39:42.903Z,98232.31
2023-03-10T12:42:31.197Z,98254.69
2023-03-10T12:45:24.298Z,98266.81
2023-03-10T12:48:11.036Z,98281.66
2023-03-10T12:50:56.524Z,98179.69
2023-03-10T12:53:36.044Z,98163.56
2023-03-10T12:56:12.014Z,98183.94
2023-03-10T12:58:49.703Z,98199.63
2023-03-10T13:01:21.958Z,98269.69
2023-03-10T13:03:54.104Z,98216.22
2023-03-10T13:06:30.194Z,98169.69
2023-03-10T13:09:10.822Z,98218.59
2023-03-10T13:11:57.665Z,98208.44
2023-03-10T13:14:33.632Z,98246.69
2023-03-10T13:17:01.338Z,98177.28
2023-03-10T13:19:30.993Z,98207.84
2023-03-10T13:21:58.384Z,98205.13
2023-03-10T13:24:33.678Z,98213.72
2023-03-10T13:27:31.647Z,98291.03
2023-03-10T13:30:13.632Z,98333.16
2023-03-10T13:32:41.060Z,98332.78
2023-03-10T13:35:31.475Z,98333.72
2023-03-10T13:38:12.624Z,98307.66
2023-03-10T13:40:45.788Z,98256.06
2023-03-10T13:43:32.557Z,98268.09
2023-03-10T13:46:00.160Z,98261.13
2023-03-10T13:48:29.164Z,98293.44
2023-03-10T13:51:32.633Z,98289.19
2023-03-10T13:54:35.228Z,98295.81
2023-03-10T13:57:25.854Z,98298.28
2023-03-10T13:59:54.710Z,98301.84
2023-03-10T14:02:28.636Z,98330.47
2023-03-10T14:04:55.803Z,98363.47
2023-03-10T14:07:38.890Z,98321.69
2023-03-10T14:10:05.365Z,98409.09
2023-03-10T14:12:44.779Z,98429.13
2023-03-10T14:15:21.489Z,98464.53
2023-03-10T14:18:03.732Z,98425.56
2023-03-10T14:20:40.053Z,98408.16
2023-03-10T14:23:18.448Z,98453.53
2023-03-10T14:25:46.588Z,98416.53
2023-03-10T14:28:17.967Z,98400.31
2023-03-10T14:30:45.298Z,98391.47
2023-03-10T14:33:13.916Z,98405.31
2023-03-10T14:35:41.880Z,98368.91
2023-03-10T14:38:08.883Z,98372.88
2023-03-10T14:40:41.233Z,98350.38
2023-03-10T14:43:16.057Z,98375.66
2023-03-10T14:45:44.912Z,98399.66
2023-03-10T14:48:20.423Z,98387.28
2023-03-10T14:50:47.852Z,98355.78
2023-03-10T14:53:17.259Z,98315.97
2023-03-10T14:55:47.759Z,98406.97
2023-03-10T14:58:18.369Z,98411.28
2023-03-10T15:00:44.912Z,98409.06
2023-03-10T15:03:12.599Z,98407.94
2023-03-10T15:05:48.283Z,98438.59
2023-03-10T15:08:16.009Z,98468.84
2023-03-10T15:10:44.556Z,98407.31
2023-03-10T15:13:15.045Z,98381.31
2023-03-10T15:15:44.432Z,98395.56
2023-03-10T15:18:13.371Z,98435.03
2023-03-10T15:20:40.390Z,98379.69
2023-03-10T15:23:09.297Z,98396.94
2023-03-10T15:25:35.888Z,98361.16
2023-03-10T15:28:03.021Z,98390.31
2023-03-10T15:30:35.592Z,98404.28
2023-03-10T15:33:03.157Z,98380.97
2023-03-10T15:35:30.786Z,98421.16
2023-03-10T15:37:58.268Z,98369.84
2023-03-10T15:40:28.461Z,98377.16
2023-03-10T15:42:57.367Z,98400.25
2023-03-10T15:45:26.106Z,98393.94
2023-03-10T15:47:53.221Z,98333.94
2023-03-10T15:50:21.083Z,98355.31
2023-03-10T15:52:49.792Z,98394.09
2023-03-10T15:55:16.890Z,98387.50
2023-03-10T15:57:44.491Z,98327.16
2023-03-10T16:00:12.590Z,98375.22
2023-03-10T16:02:39.099Z,98417.53
2023-03-10T16:05:06.513Z,98404.94
2023-03-10T16:07:35.949Z,98316.81
2023-03-10T16:10:02.840Z,98421.63
2023-03-10T16:12:29.849Z,98414.75
2023-03-10T16:14:57.025Z,98321.31
2023-03-10T16:17:24.298Z,98390.56
2023-03-10T16:19:51.267Z,98371.13
2023-03-10T16:22:17.911Z,98414.06
2023-03-10T16:24:44.498Z,98386.78
2023-03-10T16:27:11.239Z,98342.56
2023-03-10T16:29:40.409Z,98395.72
2023-03-10T16:32:12.010Z,98341.03
2023-03-10T16:34:38.717Z,98314.44
2023-03-10T16:37:08.130Z,98380.53
2023-03-10T16:39:36.620Z,98352.91
2023-03-10T16:42:03.195Z,98330.94
2023-03-10T16:44:29.684Z,98318.47
2023-03-10T16:46:56.232Z,98311.47
2023-03-10T16:49:22.728Z,98158.69
2023-03-10T16:51:49.268Z,98342.25
2023-03-10T16:54:19.136Z,98321.84
2023-03-10T16:56:50.656Z,98235.56
2023-03-10T16:59:19.851Z,98264.84
2023-03-10T17:01:47.184Z,98222.50
2023-03-10T17:04:14.048Z,98330.09
2023-03-10T17:06:41.228Z,98325.75
2023-03-10T17:09:09.517Z,98328.03
2023-03-10T17:11:41.452Z,98328.69
2023-03-10T17:14:11.044Z,98316.53
2023-03-10T17:16:38.456Z,98285.91
2023-03-10T17:19:08.700Z,98314.69
2023-03-10T17:21:38.980Z,98296.94
2023-03-10T17:24:07.452Z,98325.06
2023-03-10T17:26:37.766Z,98378.13
2023-03-10T17:29:04.957Z,98292.47
2023-03-10T17:31:32.307Z,98340.03
2023-03-10T17:34:01.692Z,98403.03
2023-03-10T17:36:29.085Z,98402.38
2023-03-10T17:38:57.395Z,98384.13
2023-03-10T17:41:25.087Z,98364.25
2023-03-10T17:43:55.902Z,98326.22
2023-03-10T17:46:28.928Z,98354.59
2023-03-10T17:48:56.173Z,98181.91
2023-03-10T17:51:25.658Z,98184.81
2023-03-10T17:53:53.376Z,98199.66
2023-03-10T17:56:22.174Z,98254.72
2023-03-10T17:58:49.676Z,98319.03
2023-03-10T18:01:22.008Z,98230.66
2023-03-10T18:03:48.831Z,98279.16
2023-03-10T18:06:21.107Z,98264.47
2023-03-10T18:08:48.547Z,98279.28
2023-03-10T18:11:15.673Z,98227.97
2023-03-10T18:13:42.208Z,98249.22
2023-03-10T18:16:16.717Z,98259.88
2023-03-10T18:18:43.431Z,97993.28
2023-03-10T18:21:11.628Z,98181.81
2023-03-10T18:23:38.937Z,98070.09
2023-03-10T18:26:09.543Z,98003.13
2023-03-10T18:28:36.862Z,98106.94
2023-03-10T18:31:07.006Z,98145.03
2023-03-10T18:33:33.772Z,98105.63
2023-03-10T18:36:07.710Z,98072.25
2023-03-10T18:38:34.877Z,98031.25
2023-03-10T18:41:04.426Z,98088.16
2023-03-10T18:43:32.357Z,98148.47
2023-03-10T18:45:59.024Z,98081.72
2023-03-10T18:48:28.442Z,98078.78
2023-03-10T18:50:56.972Z,98045.25
2023-03-10T18:53:25.798Z,98107.03
2023-03-10T18:55:53.674Z,98049.13
2023-03-10T18:58:23.598Z,98173.13
2023-03-10T19:00:50.837Z,98167.59
2023-03-10T19:03:18.899Z,98031.94
2023-03-10T19:05:46.050Z,98137.81
2023-03-10T19:08:13.093Z,98120.22
2023-03-10T19:10:40.497Z,98146.50
2023-03-10T19:13:08.032Z,98199.63
2023-03-10T19:15:37.587Z,98224.78
2023-03-10T19:18:04.748Z,98222.72
2023-03-10T19:20:31.826Z,98178.63
2023-03-10T19:22:58.616Z,98063.91
2023-03-10T19:25:25.555Z,98157.84
2023-03-10T19:27:52.311Z,98139.13
2023-03-10T19:30:20.333Z,98205.34
2023-03-10T19:32:48.222Z,98045.09
2023-03-10T19:35:16.045Z,98120.22
2023-03-10T19:37:46.286Z,98236.69
2023-03-10T19:40:17.403Z,98224.38
2023-03-10T19:42:44.447Z,98140.91
2023-03-10T19:45:14.524Z,98182.16
2023-03-10T19:47:41.757Z,98194.59
2023-03-10T19:50:11.853Z,98202.44
2023-03-10T19:52:43.038Z,98209.28
2023-03-10T19:55:14.112Z,98204.09
2023-03-10T19:57:41.109Z,98187.34
2023-03-10T20:00:13.950Z,98200.34
2023-03-10T20:02:47.114Z,98200.22
2023-03-10T20:05:15.300Z,98177.69
2023-03-10T20:07:44.675Z,98136.31
2023-03-10T20:10:11.969Z,98143.59
2023-03-10T20:12:38.856Z,98155.47
2023-03-10T20:15:06.806Z,98104.88
2023-03-10T20:17:33.416Z,98154.34
2023-03-10T20:19:59.932Z,98108.94
2023-03-10T20:22:26.817Z,98084.06
2023-03-10T20:24:53.623Z,98103.47
2023-03-10T20:27:20.132Z,97548.53
2023-03-10T20:29:46.611Z,97007.56
2023-03-10T20:32:13.423Z,96898.47
2023-03-10T20:34:41.356Z,96907.13
2023-03-10T20:37:08.303Z,97051.34
2023-03-10T20:39:34.959Z,97166.09
2023-03-10T20:42:01.658Z,97318.53
2023-03-10T20:44:28.241Z,97383.28
2023-03-10T20:46:57.741Z,97297.19
2023-03-10T20:49:24.339Z,97369.56
2023-03-10T20:51:51.199Z,97334.09
2023-03-10T20:54:21.054Z,97350.47
2023-03-10T20:56:47.616Z,97499.75
2023-03-10T20:59:14.228Z,97408.53
2023-03-10T21:01:42.690Z,97526.38
2023-03-10T21:04:09.639Z,97567.41
2023-03-10T21:06:37.537Z,97469.31
2023-03-10T21:09:05.996Z,97507.44
2023-03-10T21:11:35.169Z,97517.41
2023-03-10T21:14:04.022Z,97522.19
2023-03-10T21:16:30.920Z,96654.34
2023-03-10T21:18:57.522Z,96916.09
2023-03-10T21:21:24.644Z,96930.53
2023-03-10T21:23:51.442Z,97058.19
2023-03-10T21:26:21.301Z,97115.66
2023-03-10T21:28:48.659Z,97256.38
2023-03-10T21:31:15.883Z,97109.88
2023-03-10T21:33:45.857Z,96988.81
2023-03-10T21:36:22.043Z,97393.88
2023-03-10T21:38:50.215Z,97325.19
2023-03-10T21:41:19.146Z,97349.28
2023-03-10T21:43:45.893Z,97375.16
2023-03-10T21:46:12.720Z,97258.53
2023-03-10T21:48:41.178Z,97521.47
2023-03-10T21:51:09.979Z,97357.16
2023-03-10T21:53:36.880Z,97025.44
2023-03-10T21:56:04.123Z,97570.91
2023-03-10T21:58:30.662Z,97931.06
2023-03-10T22:00:57.517Z,98106.44
2023-03-10T22:03:24.100Z,98275.78
2023-03-10T22:05:50.743Z,98346.53
2023-03-10T22:08:17.607Z,98176.56
2023-03-10T22:10:46.310Z,98288.72
2023-03-10T22:13:13.034Z,98363.97
2023-03-10T22:15:40.340Z,98317.22
2023-03-10T22:18:07.200Z,98391.81
2023-03-10T22:20:34.112Z,98442.47
2023-03-10T22:23:01.273Z,97216.09
2023-03-10T22:25:28.082Z,97202.53
2023-03-10T22:27:56.425Z,97376.56
2023-03-10T22:30:25.636Z,97781.53
2023-03-10T22:32:52.636Z,97571.06
2023-03-10T22:35:19.983Z,97293.78
2023-03-10T22:37:46.625Z,97178.59
2023-03-10T22:40:16.973Z,97707.84
2023-03-10T22:42:45.006Z,98110.22
2023-03-10T22:45:18.338Z,98361.25
2023-03-10T22:47:45.088Z,98362.25
2023-03-10T22:50:18.570Z,98256.41
2023-03-10T22:52:45.445Z,98229.00
2023-03-10T22:55:17.783Z,98432.94
2023-03-10T22:57:44.778Z,98437.78
2023-03-10T23:00:19.888Z,98553.47
2023-03-10T23:02:48.714Z,98598.59
2023-03-10T23:05:16.195Z,98526.50
2023-03-10T23:07:44.108Z,98535.78
2023-03-10T23:10:17.035Z,98572.41
2023-03-10T23:12:44.582Z,98559.34
2023-03-10T23:15:24.774Z,98375.16
2023-03-10T23:17:53.371Z,98496.84
2023-03-10T23:20:20.798Z,98603.38
2023-03-10T23:22:47.856Z,98581.63
2023-03-10T23:25:24.040Z,98605.31
2023-03-10T23:27:51.136Z,98600.28
2023-03-10T23:30:18.406Z,98566.75
2023-03-10T23:32:51.149Z,98583.53
2023-03-10T23:35:24.001Z,98526.31
2023-03-10T23:37:51.258Z,98469.94
2023-03-10T23:40:20.061Z,97844.13
2023-03-10T23:42:47.408Z,97624.19
2023-03-10T23:45:17.718Z,97647.47
2023-03-10T23:47:45.393Z,97564.47
2023-03-10T23:50:20.774Z,97840.34
2023-03-10T23:52:47.748Z,97791.34
2023-03-10T23:55:18.938Z,97667.06
2023-03-10T23:57:45.667Z,97682.66
